»·PEaware :: SWA1884 KLAS-KSNA

SWA1884 :: KLAS-KSNA

FLIGHT INFORMATION

Flight Status: Arrived
Operator:
Southwest Airlines
More flights by this operator :: More flights under this callsign
Pilot: Merv A. (1555)
Aircraft: BOEING 737-700
(B737)
More flights by this aircraft type
Origin: KLAS McCarran Intl
United States
Destination: KSNA John Wayne-Orange Co
United States
More flights between these airports :: More routes between these airports
Route: +BOACH8 WHIGG FEYLA DSNEE4
File this flight plan on PilotEdge
Remarks: PBN / A1B1C1D1S1S2 NAV / RNVD1E2A1 REG / N940NW RMK / SIMBRIEF
Altitude:
(Current/Filed)
28,000ft
Speed:
(Current/Filed)
445kts
Departed: 11-Oct-18 03:11 PM
Arrived: 11-Oct-18 03:55 PM
Distance/Time
Traveled:
196nm/0:44
Distance/Time
To Go:
Arrived

Flight Plot

Page will automatically refresh every two minutes.

Flight plan parsing failed; only flown route is shown


Map Options




Map Legend


Flown Route
Filed Route
Departure Airport
Arrival Airport
Navaid (VOR, NDB)
Fix

Horizontal Profiles

Position Reports

Time Latitude Longitude Heading Altitude Ground
Speed
11-Oct-18 14:45 36.081581 -115.146298 255 2189ft 0kts
11-Oct-18 14:46 36.081581 -115.146298 255 2189ft 0kts
11-Oct-18 14:47 36.081581 -115.146298 255 2189ft 0kts
11-Oct-18 14:48 36.081581 -115.146298 255 2189ft 0kts
11-Oct-18 14:49 36.081581 -115.146298 255 2189ft 0kts
11-Oct-18 14:50 36.081581 -115.146298 255 2189ft 0kts
11-Oct-18 14:51 36.081581 -115.146298 255 2188ft 0kts
11-Oct-18 14:52 36.081581 -115.146298 255 2188ft 0kts
11-Oct-18 14:53 36.081581 -115.146298 255 2188ft 0kts
11-Oct-18 14:54 36.081581 -115.146298 255 2188ft 0kts
11-Oct-18 14:55 36.081581 -115.146298 255 2188ft 0kts
11-Oct-18 14:56 36.081581 -115.146298 255 2188ft 0kts
11-Oct-18 14:57 36.081581 -115.146298 255 2188ft 0kts
11-Oct-18 14:58 36.081581 -115.146298 255 2188ft 0kts
11-Oct-18 14:59 36.081581 -115.146298 255 2188ft 0kts
11-Oct-18 15:00 36.081581 -115.146298 255 2188ft 0kts
11-Oct-18 15:01 36.081581 -115.146298 255 2188ft 0kts
11-Oct-18 15:02 36.081581 -115.146298 255 2188ft 0kts
11-Oct-18 15:03 36.081598 -115.146222 254 2188ft 2kts
11-Oct-18 15:04 36.081930 -115.145646 164 2188ft 2kts
11-Oct-18 15:05 36.082055 -115.145708 155 2188ft 0kts
11-Oct-18 15:06 36.081993 -115.145668 148 2188ft 3kts
11-Oct-18 15:07 36.079952 -115.144817 178 2188ft 9kts
11-Oct-18 15:08 36.077667 -115.145781 274 2188ft 17kts
11-Oct-18 15:09 36.078039 -115.151812 270 2188ft 15kts
11-Oct-18 15:10 36.078042 -115.157301 269 2188ft 17kts
11-Oct-18 15:11 36.077573 -115.161270 183 2188ft 8kts
11-Oct-18 15:12 36.076396 -115.160885 91 2188ft 6kts
11-Oct-18 15:13 36.076431 -115.142952 90 2244ft 149kts
11-Oct-18 15:14 36.076421 -115.088209 89 4607ft 180kts
11-Oct-18 15:15 36.076146 -115.010856 91 6105ft 269kts
11-Oct-18 15:16 36.042377 -114.932813 160 8399ft 279kts
11-Oct-18 15:17 35.967784 -114.908796 185 12186ft 281kts
11-Oct-18 15:18 35.902970 -114.970725 228 14672ft 328kts
11-Oct-18 15:19 35.836379 -115.055538 226 17746ft 352kts
11-Oct-18 15:20 35.772514 -115.149171 233 20890ft 363kts
11-Oct-18 15:21 35.708805 -115.247680 233 22878ft 374kts
11-Oct-18 15:22 35.641597 -115.345361 229 23858ft 378kts
11-Oct-18 15:23 35.571138 -115.439162 229 26744ft 374kts
11-Oct-18 15:24 35.499717 -115.534980 230 27881ft 391kts
11-Oct-18 15:25 35.425777 -115.634605 230 27882ft 394kts
11-Oct-18 15:26 35.351818 -115.734036 229 27884ft 395kts
11-Oct-18 15:27 35.265151 -115.849822 229 27882ft 395kts
11-Oct-18 15:28 35.202951 -115.931532 228 27882ft 394kts
11-Oct-18 15:29 35.126237 -116.027866 228 27883ft 396kts
11-Oct-18 15:30 35.049774 -116.124470 228 27884ft 397kts
11-Oct-18 15:31 34.959771 -116.237350 228 27892ft 397kts
11-Oct-18 15:32 34.895707 -116.317423 228 27890ft 397kts
11-Oct-18 15:33 34.819442 -116.414511 228 27894ft 393kts
11-Oct-18 15:34 34.745730 -116.508175 229 27175ft 376kts
11-Oct-18 15:35 34.671639 -116.597276 223 25707ft 373kts
11-Oct-18 15:36 34.591647 -116.674496 222 23523ft 362kts
11-Oct-18 15:37 34.514135 -116.749900 222 21401ft 352kts
11-Oct-18 15:38 34.443856 -116.829111 227 19343ft 341kts
11-Oct-18 15:39 34.376668 -116.907571 226 17435ft 331kts
11-Oct-18 15:40 34.310555 -116.983958 225 15411ft 326kts
11-Oct-18 15:41 34.240516 -117.053441 212 13799ft 329kts
11-Oct-18 15:42 34.160564 -117.109138 208 12965ft 327kts
11-Oct-18 15:43 34.078778 -117.152398 205 12480ft 321kts
11-Oct-18 15:44 33.998621 -117.198805 218 11993ft 315kts
11-Oct-18 15:45 33.941053 -117.273563 230 10754ft 293kts
11-Oct-18 15:46 33.891130 -117.344059 229 9628ft 262kts
11-Oct-18 15:47 33.845374 -117.408849 228 8599ft 245kts
11-Oct-18 15:48 33.820481 -117.479865 275 7527ft 239kts
11-Oct-18 15:49 33.829840 -117.557648 276 6414ft 228kts
11-Oct-18 15:50 33.833243 -117.631187 268 5316ft 213kts
11-Oct-18 15:51 33.833038 -117.700368 269 4305ft 204kts
11-Oct-18 15:52 33.831433 -117.765409 246 3275ft 186kts
11-Oct-18 15:53 33.790469 -117.797153 204 2407ft 175kts
11-Oct-18 15:54 33.749094 -117.822207 209 1529ft 147kts
11-Oct-18 15:55 33.715503 -117.843543 209 819ft 132kts
11-Oct-18 15:56 33.682772 -117.864378 209 118ft 133kts
11-Oct-18 15:57 33.669280 -117.871760 132 64ft 0kts
11-Oct-18 15:58 33.669279 -117.871759 132 64ft 0kts
11-Oct-18 15:59 33.670227 -117.869776 41 64ft 14kts
11-Oct-18 16:00 33.673014 -117.867353 48 64ft 10kts
11-Oct-18 16:01 33.675494 -117.865602 27 64ft 10kts
11-Oct-18 16:02 33.676902 -117.864153 117 64ft 3kts
11-Oct-18 16:03 33.676791 -117.863905 117 64ft 0kts
11-Oct-18 16:04 33.676791 -117.863905 117 64ft 0kts
11-Oct-18 16:05 33.676791 -117.863905 117 64ft 0kts
11-Oct-18 16:06 33.676791 -117.863905 117 64ft 0kts

Navigation Log

Ident Type
Flight plan parsing failed, navigation log unavailable